Time;durP1;ratioP1;P1;durP2;ratioP2;P2;SDS_P1;SDS_P2;PMS_P1;PMS_P2;Temp;Humidity;BMP_temperature;BMP_pressure;BME280_temperature;BME280_humidity;BME280_pressure;Samples;Min_cycle;Max_cycle;Signal;HPM_P1;HPM_P2
2022/04/30 00:02:19;;;;;;;2.33;1.67;;;4.60;99.90;;;;;;4932485;29;20051;-71
2022/04/30 00:04:47;;;;;;;3.03;1.95;;;4.60;99.90;;;;;;4914487;29;20099;-71
2022/04/30 00:07:16;;;;;;;1.90;1.50;;;4.60;99.90;;;;;;4942406;29;20046;-71
2022/04/30 00:09:42;;;;;;;2.03;1.52;;;4.60;99.90;;;;;;4939955;29;20348;-71
2022/04/30 00:12:09;;;;;;;1.80;1.33;;;4.60;99.90;;;;;;4905890;29;20112;-72
2022/04/30 00:14:36;;;;;;;1.92;1.52;;;4.60;99.90;;;;;;4919833;29;20110;-72
2022/04/30 00:17:04;;;;;;;2.40;1.65;;;4.60;99.90;;;;;;4919409;29;20054;-72
2022/04/30 00:19:30;;;;;;;1.88;1.58;;;4.60;99.90;;;;;;4936449;29;20422;-72
2022/04/30 00:21:56;;;;;;;2.00;1.50;;;4.70;99.90;;;;;;4936280;29;20035;-72
2022/04/30 00:24:23;;;;;;;1.80;1.25;;;4.70;99.90;;;;;;4903323;29;20062;-72
2022/04/30 00:26:49;;;;;;;2.33;1.50;;;4.70;99.90;;;;;;4919017;29;20090;-72
2022/04/30 00:29:14;;;;;;;2.03;1.38;;;4.70;99.90;;;;;;4919517;29;20086;-72
2022/04/30 00:31:40;;;;;;;3.50;1.73;;;4.70;99.90;;;;;;4919892;29;20055;-72
2022/04/30 00:34:07;;;;;;;3.58;1.83;;;4.90;99.90;;;;;;4919925;29;20051;-72
2022/04/30 00:36:33;;;;;;;2.13;1.73;;;4.90;99.90;;;;;;4919149;29;20047;-72
2022/04/30 00:39:00;;;;;;;1.58;1.25;;;5.00;99.90;;;;;;4919253;29;20048;-72
2022/04/30 00:41:26;;;;;;;1.63;1.40;;;5.00;99.90;;;;;;4918952;29;20052;-72
2022/04/30 00:43:53;;;;;;;1.30;1.13;;;4.90;99.90;;;;;;4902743;29;20048;-72
2022/04/30 00:46:21;;;;;;;1.40;1.15;;;4.90;99.90;;;;;;4918234;29;20055;-72
2022/04/30 00:48:47;;;;;;;1.80;1.13;;;4.90;99.90;;;;;;4918027;29;20043;-72
2022/04/30 00:51:15;;;;;;;1.38;1.10;;;4.90;99.90;;;;;;4918066;29;20040;-72
2022/04/30 00:53:44;;;;;;;1.08;0.90;;;4.90;99.90;;;;;;4918234;29;20087;-72
2022/04/30 00:56:13;;;;;;;1.60;1.20;;;4.80;99.90;;;;;;4918463;29;20062;-72
2022/04/30 00:58:45;;;;;;;2.20;1.20;;;4.80;99.90;;;;;;4935444;29;20661;-73
2022/04/30 01:01:11;;;;;;;1.92;1.08;;;4.80;99.90;;;;;;4918607;29;20048;-72
2022/04/30 01:03:37;;;;;;;1.25;1.00;;;4.80;99.90;;;;;;4918235;29;20085;-72
2022/04/30 01:06:04;;;;;;;1.45;1.02;;;4.70;99.90;;;;;;4918030;29;20087;-72
2022/04/30 01:08:30;;;;;;;1.52;1.10;;;4.70;99.90;;;;;;4918308;29;20161;-72
2022/04/30 01:11:04;;;;;;;1.20;1.10;;;4.70;99.90;;;;;;4917879;29;20381;-72
2022/04/30 01:13:36;;;;;;;1.30;1.00;;;4.80;99.90;;;;;;4917872;29;20048;-72
2022/04/30 01:16:08;;;;;;;2.42;1.60;;;4.80;99.90;;;;;;4917742;29;20050;-72
2022/04/30 01:18:34;;;;;;;2.10;1.25;;;4.90;99.90;;;;;;4917651;29;20084;-72
2022/04/30 01:21:04;;;;;;;;;;;4.80;99.90;;;;;;4918166;29;20154;-72
2022/04/30 01:23:34;;;;;;;1.65;1.23;;;4.80;99.90;;;;;;4917426;29;20298;-72
2022/04/30 01:26:04;;;;;;;2.35;1.23;;;4.80;99.90;;;;;;4917397;29;20059;-72
2022/04/30 01:28:30;;;;;;;1.23;1.02;;;4.80;99.90;;;;;;4917520;29;20039;-73
2022/04/30 01:30:56;;;;;;;1.67;1.27;;;4.70;99.90;;;;;;4917596;29;20044;-72
2022/04/30 01:38:56;;;;;;;1.55;0.95;;;4.70;99.90;;;;;;4917154;29;20522;-72
2022/04/30 01:41:22;;;;;;;1.52;1.13;;;4.60;99.90;;;;;;4917188;29;20496;-72
2022/04/30 01:43:49;;;;;;;1.90;0.87;;;4.60;99.90;;;;;;4901775;29;20106;-72
2022/04/30 01:46:15;;;;;;;1.40;1.08;;;4.60;99.90;;;;;;4901422;29;20382;-72
2022/04/30 01:48:41;;;;;;;1.20;0.93;;;4.60;99.90;;;;;;4886533;29;20103;-72
2022/04/30 01:51:07;;;;;;;1.05;0.90;;;4.60;99.90;;;;;;4917145;29;20040;-72
2022/04/30 01:53:34;;;;;;;1.33;0.90;;;4.60;99.90;;;;;;4917352;29;20051;-72
2022/04/30 01:56:00;;;;;;;1.20;0.70;;;4.60;99.90;;;;;;4917313;29;20295;-71
2022/04/30 01:58:26;;;;;;;0.95;0.80;;;4.60;99.90;;;;;;4934008;29;20054;-71
2022/04/30 02:00:53;;;;;;;1.77;0.93;;;4.50;99.90;;;;;;4915294;29;20485;-72
2022/04/30 02:03:19;;;;;;;1.67;1.00;;;4.60;99.90;;;;;;4916303;29;20048;-71
2022/04/30 02:05:45;;;;;;;1.45;1.00;;;4.60;99.90;;;;;;4915619;29;20065;-71
2022/04/30 02:08:14;;;;;;;1.17;0.90;;;4.50;99.90;;;;;;4916895;29;20050;-71
2022/04/30 02:10:41;;;;;;;1.20;1.00;;;4.50;99.90;;;;;;4916882;29;20487;-71
2022/04/30 02:13:09;;;;;;;1.60;1.00;;;4.50;99.90;;;;;;4916823;29;20510;-71
2022/04/30 02:15:39;;;;;;;0.95;0.80;;;4.50;99.90;;;;;;4916937;29;20377;-71
2022/04/30 02:18:06;;;;;;;0.95;0.80;;;4.50;99.90;;;;;;4916694;29;20119;-71
2022/04/30 02:20:37;;;;;;;0.75;0.70;;;4.50;99.90;;;;;;4916487;29;20349;-71
2022/04/30 02:23:08;;;;;;;1.35;0.82;;;4.50;99.90;;;;;;4916696;29;20048;-72
2022/04/30 02:25:34;;;;;;;0.82;0.80;;;4.50;99.90;;;;;;4916322;29;20062;-72
2022/04/30 02:28:04;;;;;;;1.40;0.80;;;4.50;99.90;;;;;;4916648;29;20046;-71
2022/04/30 02:30:32;;;;;;;0.90;0.80;;;4.50;99.90;;;;;;4900869;29;20550;-72
2022/04/30 02:33:08;;;;;;;0.90;0.80;;;4.50;99.90;;;;;;4916532;29;20054;-71
2022/04/30 02:35:35;;;;;;;1.00;0.90;;;4.40;99.90;;;;;;4916383;29;20146;-71
2022/04/30 02:38:01;;;;;;;;;;;4.50;99.90;;;;;;4917116;29;20044;-71
2022/04/30 02:40:28;;;;;;;1.65;1.00;;;4.50;99.90;;;;;;4916568;29;20056;-71
2022/04/30 02:42:56;;;;;;;1.42;1.08;;;4.40;99.90;;;;;;4916734;29;20530;-71
2022/04/30 02:45:22;;;;;;;1.30;0.90;;;4.50;99.90;;;;;;4915971;29;20428;-72
2022/04/30 02:47:53;;;;;;;1.52;1.10;;;4.40;99.90;;;;;;4916288;29;20053;-71
2022/04/30 02:50:22;;;;;;;0.88;0.73;;;4.50;99.90;;;;;;4901193;29;20122;-71
2022/04/30 02:52:48;;;;;;;1.35;0.90;;;4.40;99.90;;;;;;4916255;29;20114;-72
2022/04/30 02:55:14;;;;;;;1.95;1.00;;;4.40;99.90;;;;;;4900451;29;20075;-71
2022/04/30 03:00:32;;;;;;;0.80;0.80;;;4.40;99.90;;;;;;4916200;29;20059;-71
2022/04/30 03:02:58;;;;;;;0.82;0.82;;;4.50;99.90;;;;;;4916372;29;20206;-71
2022/04/30 03:05:24;;;;;;;1.10;0.90;;;4.50;99.90;;;;;;4900382;29;20075;-71
2022/04/30 03:07:51;;;;;;;0.95;0.85;;;4.40;99.90;;;;;;4916429;29;20091;-71
2022/04/30 03:10:17;;;;;;;;;;;4.50;99.90;;;;;;4901277;29;20040;-71
2022/04/30 03:12:42;;;;;;;1.00;0.80;;;4.50;99.90;;;;;;4903903;29;19942;-71
2022/04/30 03:15:09;;;;;;;0.60;0.60;;;4.40;99.90;;;;;;4919639;29;20127;-71
2022/04/30 03:23:05;;;;;;;1.10;1.00;;;4.40;99.90;;;;;;4919704;29;20107;-71
2022/04/30 03:25:30;;;;;;;0.77;0.70;;;4.40;99.90;;;;;;4919196;29;20052;-71
2022/04/30 03:27:56;;;;;;;1.13;0.80;;;4.50;99.90;;;;;;4919473;29;20059;-71
2022/04/30 03:30:22;;;;;;;0.85;0.70;;;4.40;99.90;;;;;;4888149;29;20144;-71
2022/04/30 03:32:52;;;;;;;;;;;4.50;99.90;;;;;;4919817;29;20056;-72
2022/04/30 03:35:18;;;;;;;1.50;0.73;;;4.50;99.90;;;;;;4919559;29;19926;-71
2022/04/30 03:37:43;;;;;;;1.02;0.93;;;4.50;99.90;;;;;;4919405;29;20047;-72
2022/04/30 03:40:10;;;;;;;1.10;1.00;;;4.50;99.90;;;;;;4903720;29;20131;-71
2022/04/30 03:42:35;;;;;;;0.85;0.70;;;4.60;99.90;;;;;;4919306;29;20094;-71
2022/04/30 03:45:05;;;;;;;1.05;0.90;;;4.60;99.90;;;;;;4919638;29;20427;-71
2022/04/30 03:47:31;;;;;;;1.17;0.80;;;4.60;99.90;;;;;;4919185;29;20055;-71
2022/04/30 03:49:56;;;;;;;0.93;0.80;;;4.60;99.90;;;;;;4903483;29;20048;-71
2022/04/30 03:52:22;;;;;;;1.10;0.90;;;4.60;99.90;;;;;;4918986;29;20078;-72
2022/04/30 03:54:48;;;;;;;3.33;1.17;;;4.60;99.90;;;;;;4919473;29;20055;-72
2022/04/30 03:57:14;;;;;;;1.52;1.15;;;4.60;99.90;;;;;;4936541;29;20439;-71
2022/04/30 03:59:39;;;;;;;1.42;0.82;;;4.60;99.90;;;;;;4919153;29;20134;-71
2022/04/30 04:02:06;;;;;;;1.45;1.00;;;4.50;99.90;;;;;;4935398;29;20075;-71
2022/04/30 04:04:32;;;;;;;1.20;1.00;;;4.60;99.90;;;;;;4918836;29;20047;-71
2022/04/30 04:06:58;;;;;;;1.33;0.93;;;4.50;99.90;;;;;;4915276;29;20111;-71
2022/04/30 04:09:24;;;;;;;1.25;0.93;;;4.50;99.90;;;;;;4919385;29;20126;-71
2022/04/30 04:11:50;;;;;;;1.50;1.25;;;4.50;99.90;;;;;;4918853;29;20052;-71
2022/04/30 04:19:44;;;;;;;1.10;1.00;;;4.50;99.90;;;;;;4918744;29;20106;-72
2022/04/30 04:22:10;;;;;;;1.15;1.00;;;4.60;99.90;;;;;;4917892;29;20048;-72
2022/04/30 04:27:20;;;;;;;1.40;1.05;;;4.70;99.90;;;;;;4918501;29;20483;-71
2022/04/30 04:29:46;;;;;;;1.08;0.90;;;4.80;99.90;;;;;;4902887;29;20048;-71
2022/04/30 04:32:13;;;;;;;1.60;1.20;;;4.80;99.90;;;;;;4918414;29;20122;-71
2022/04/30 04:34:38;;;;;;;1.75;1.10;;;4.90;99.90;;;;;;4918983;29;20047;-71
2022/04/30 04:37:04;;;;;;;0.90;0.80;;;4.90;99.90;;;;;;4918488;29;20078;-71
2022/04/30 04:39:30;;;;;;;2.45;1.33;;;5.00;99.90;;;;;;4918193;29;20137;-71
2022/04/30 04:41:56;;;;;;;2.53;2.03;;;5.00;99.90;;;;;;4918032;29;20055;-71
2022/04/30 04:44:21;;;;;;;2.60;1.95;;;5.10;99.90;;;;;;4918238;29;20047;-71
2022/04/30 04:46:48;;;;;;;2.25;1.50;;;5.20;99.90;;;;;;4902131;29;20460;-71
2022/04/30 04:49:14;;;;;;;;;;;5.30;99.90;;;;;;4918576;29;20097;-71
2022/04/30 04:51:39;;;;;;;2.58;1.48;;;5.30;99.90;;;;;;4917738;29;20355;-71
2022/04/30 04:54:06;;;;;;;1.55;1.10;;;5.40;99.90;;;;;;4917967;29;20047;-71
2022/04/30 04:56:32;;;;;;;2.72;1.40;;;5.50;99.90;;;;;;4901983;29;20039;-72
2022/04/30 04:58:58;;;;;;;1.10;0.98;;;5.60;99.90;;;;;;4902050;29;20075;-72
2022/04/30 05:01:24;;;;;;;1.30;1.10;;;5.60;99.90;;;;;;4902563;29;20047;-72
2022/04/30 05:03:50;;;;;;;1.80;1.13;;;5.60;99.90;;;;;;4917982;29;20051;-72
2022/04/30 05:06:16;;;;;;;1.15;1.02;;;5.70;99.90;;;;;;4917751;29;20056;-72
2022/04/30 05:08:42;;;;;;;0.90;0.90;;;5.80;99.90;;;;;;4902023;29;20051;-71
2022/04/30 05:11:08;;;;;;;1.05;0.95;;;5.80;99.90;;;;;;4917602;29;20039;-72
2022/04/30 05:13:34;;;;;;;2.50;1.50;;;5.90;99.90;;;;;;4902131;29;20137;-72
2022/04/30 05:16:00;;;;;;;1.90;1.30;;;5.90;99.90;;;;;;4886125;29;20134;-72
2022/04/30 05:18:25;;;;;;;1.40;1.10;;;6.00;99.90;;;;;;4917809;29;20051;-72
2022/04/30 05:20:51;;;;;;;1.30;1.10;;;6.10;99.90;;;;;;4917559;29;20131;-72
2022/04/30 05:23:17;;;;;;;1.23;1.02;;;6.20;99.90;;;;;;4917407;29;20047;-72
2022/04/30 05:25:42;;;;;;;2.25;1.48;;;6.20;99.90;;;;;;4917239;29;20087;-71
2022/04/30 05:28:09;;;;;;;2.22;1.40;;;6.30;99.90;;;;;;4917485;29;20061;-72
2022/04/30 05:30:35;;;;;;;1.50;1.17;;;6.40;99.90;;;;;;4901671;29;20051;-71
2022/04/30 05:33:01;;;;;;;1.20;1.10;;;6.50;99.90;;;;;;4934987;29;20036;-72
2022/04/30 05:35:26;;;;;;;1.30;0.88;;;6.60;99.90;;;;;;4901487;29;20451;-72
2022/04/30 05:37:52;;;;;;;1.10;1.00;;;6.70;99.90;;;;;;4901478;29;20130;-72
2022/04/30 05:40:18;;;;;;;1.27;0.95;;;6.70;99.90;;;;;;4916903;29;20127;-72
2022/04/30 05:42:44;;;;;;;1.75;1.58;;;6.80;99.90;;;;;;4901220;29;20048;-72
2022/04/30 05:45:10;;;;;;;1.85;1.45;;;6.90;99.90;;;;;;4916781;29;20601;-72
2022/04/30 05:47:37;;;;;;;2.13;1.20;;;7.00;99.90;;;;;;4916695;29;20075;-72
2022/04/30 05:50:05;;;;;;;1.80;1.20;;;7.10;99.90;;;;;;4917064;29;20510;-72
2022/04/30 05:52:30;;;;;;;1.45;1.27;;;7.20;99.90;;;;;;4916993;29;20056;-72
2022/04/30 05:54:56;;;;;;;2.33;1.33;;;7.20;99.90;;;;;;4916782;29;20377;-72
2022/04/30 05:57:22;;;;;;;2.63;1.45;;;7.40;99.90;;;;;;4916506;29;20487;-72
2022/04/30 05:59:48;;;;;;;2.78;1.65;;;7.40;99.90;;;;;;4916670;29;20055;-72
2022/04/30 06:02:13;;;;;;;1.75;1.50;;;7.50;99.90;;;;;;4916491;29;20052;-72
2022/04/30 06:04:39;;;;;;;2.50;1.60;;;7.50;99.90;;;;;;4917036;29;20126;-72
2022/04/30 06:07:05;;;;;;;1.30;1.20;;;7.70;99.90;;;;;;4916188;29;20054;-72
2022/04/30 06:09:30;;;;;;;1.70;1.30;;;7.80;99.90;;;;;;4933858;29;20044;-72
2022/04/30 06:11:56;;;;;;;2.53;1.67;;;7.90;99.90;;;;;;4900767;29;20090;-72
2022/04/30 06:14:22;;;;;;;3.63;1.77;;;8.00;99.90;;;;;;4916422;29;20059;-72
2022/04/30 06:16:47;;;;;;;4.15;3.08;;;8.10;99.90;;;;;;4916360;29;20110;-72
2022/04/30 06:19:13;;;;;;;4.00;2.90;;;8.10;99.90;;;;;;4916353;29;20051;-72
2022/04/30 06:21:40;;;;;;;4.03;2.10;;;8.30;99.90;;;;;;4900711;29;20122;-72
2022/04/30 06:24:06;;;;;;;3.10;2.15;;;8.40;99.90;;;;;;4916186;29;20130;-72
2022/04/30 06:26:32;;;;;;;6.35;2.90;;;8.60;99.90;;;;;;4900334;29;20052;-72
2022/04/30 06:28:58;;;;;;;2.65;2.20;;;8.70;99.90;;;;;;4933617;29;20183;-73
2022/04/30 06:31:24;;;;;;;4.57;2.28;;;8.80;99.90;;;;;;4900448;29;20516;-72
2022/04/30 06:33:52;;;;;;;3.92;2.53;;;8.90;99.90;;;;;;4916301;29;20075;-73
2022/04/30 06:36:17;;;;;;;3.95;2.97;;;9.00;99.90;;;;;;4933237;29;20070;-73
2022/04/30 06:38:43;;;;;;;3.22;2.15;;;9.00;99.90;;;;;;4916587;29;20051;-72
2022/04/30 06:41:09;;;;;;;3.10;2.53;;;9.00;99.90;;;;;;4916275;29;20123;-73
2022/04/30 06:43:34;;;;;;;1.75;1.38;;;9.10;99.90;;;;;;4916431;29;20090;-72
2022/04/30 06:46:00;;;;;;;3.97;2.10;;;9.10;99.90;;;;;;4933190;29;20067;-69
2022/04/30 06:48:26;;;;;;;4.43;2.70;;;9.20;99.90;;;;;;4918228;29;20039;-72
2022/04/30 06:50:51;;;;;;;5.60;2.78;;;9.10;99.90;;;;;;4919832;29;20119;-72
2022/04/30 06:58:50;;;;;;;5.90;3.10;;;9.10;99.90;;;;;;4902641;29;20142;-73
2022/04/30 07:04:04;;;;;;;3.85;2.00;;;9.10;99.90;;;;;;4916424;29;20047;-72
2022/04/30 07:06:31;;;;;;;3.97;2.40;;;9.20;99.90;;;;;;4915903;29;20186;-73
2022/04/30 07:08:57;;;;;;;4.40;2.00;;;9.20;99.90;;;;;;4916094;29;20059;-73
2022/04/30 07:11:23;;;;;;;3.95;2.60;;;9.20;99.90;;;;;;4900767;29;20035;-69
2022/04/30 07:13:49;;;;;;;4.32;2.45;;;9.30;99.90;;;;;;4916356;29;20047;-70
2022/04/30 07:16:14;;;;;;;4.50;2.83;;;9.30;99.90;;;;;;4915742;29;20055;-70
2022/04/30 07:18:40;;;;;;;4.15;3.10;;;9.20;99.90;;;;;;4916010;29;20051;-72
2022/04/30 07:21:06;;;;;;;4.80;2.88;;;9.10;99.90;;;;;;4916208;29;20055;-72
2022/04/30 07:23:32;;;;;;;3.70;2.00;;;9.20;99.90;;;;;;4915888;29;20087;-73
2022/04/30 07:25:58;;;;;;;4.05;2.13;;;9.30;99.90;;;;;;4900014;29;20084;-71
2022/04/30 07:28:24;;;;;;;4.07;2.80;;;9.30;99.90;;;;;;4916018;29;20379;-72
2022/04/30 07:30:51;;;;;;;3.35;2.50;;;9.30;99.90;;;;;;4916042;29;20044;-72
2022/04/30 07:33:16;;;;;;;3.88;2.30;;;9.40;99.90;;;;;;4915740;29;20043;-73
2022/04/30 07:35:42;;;;;;;4.95;3.05;;;9.50;99.90;;;;;;4915922;29;20110;-70
2022/04/30 07:38:08;;;;;;;3.47;2.00;;;9.50;99.90;;;;;;4915772;29;20050;-70
2022/04/30 07:40:38;;;;;;;3.38;2.00;;;9.60;99.90;;;;;;4915875;29;20039;-73
2022/04/30 07:43:04;;;;;;;3.25;2.05;;;9.70;99.90;;;;;;4916326;29;20463;-73
2022/04/30 07:45:30;;;;;;;;;;;9.80;99.90;;;;;;4916742;29;20491;-70
2022/04/30 07:47:55;;;;;;;2.85;2.30;;;9.90;99.90;;;;;;4915698;29;19926;-70
2022/04/30 07:50:23;;;;;;;6.22;3.05;;;10.00;99.90;;;;;;4915506;29;20040;-70
2022/04/30 07:52:49;;;;;;;3.47;2.45;;;9.90;99.90;;;;;;4915598;29;20047;-70
2022/04/30 07:55:15;;;;;;;4.85;3.30;;;9.90;99.90;;;;;;4915684;29;20127;-72
2022/04/30 07:57:40;;;;;;;5.07;3.00;;;10.00;99.90;;;;;;4916772;29;20051;-72
2022/04/30 08:00:07;;;;;;;5.13;2.60;;;10.00;99.90;;;;;;4919003;29;20082;-72
2022/04/30 08:02:33;;;;;;;4.22;3.20;;;10.10;99.90;;;;;;4903543;29;20048;-72
2022/04/30 08:05:01;;;;;;;4.88;3.78;;;10.10;99.90;;;;;;4919118;29;20519;-72
2022/04/30 08:07:27;;;;;;;4.13;2.80;;;10.00;99.90;;;;;;4919036;29;20563;-73
2022/04/30 08:09:52;;;;;;;4.65;2.65;;;10.10;99.90;;;;;;4918955;29;20044;-72
2022/04/30 08:12:18;;;;;;;5.13;3.00;;;10.20;99.90;;;;;;4919204;29;20059;-72
2022/04/30 08:14:45;;;;;;;3.88;2.33;;;10.10;99.90;;;;;;4919182;29;20040;-72
2022/04/30 08:17:13;;;;;;;3.20;2.55;;;10.30;99.90;;;;;;4935747;29;20063;-70
2022/04/30 08:19:39;;;;;;;4.47;3.25;;;10.30;99.90;;;;;;4918722;29;20157;-71
2022/04/30 08:22:05;;;;;;;3.20;2.50;;;10.40;99.90;;;;;;4903131;29;20356;-71
2022/04/30 08:24:32;;;;;;;4.22;2.70;;;10.30;99.90;;;;;;4918331;29;20063;-74
2022/04/30 08:26:59;;;;;;;4.70;3.00;;;10.30;99.90;;;;;;4902855;29;20047;-71
2022/04/30 08:29:28;;;;;;;3.70;2.67;;;10.40;99.90;;;;;;4918570;29;20047;-71
2022/04/30 08:31:54;;;;;;;4.10;2.25;;;10.50;99.90;;;;;;4918321;29;20392;-71
2022/04/30 08:34:20;;;;;;;2.90;2.08;;;10.60;99.90;;;;;;4902770;29;20048;-71
2022/04/30 08:36:46;;;;;;;3.35;2.40;;;10.70;99.90;;;;;;4918649;29;20103;-71
2022/04/30 08:39:12;;;;;;;3.88;2.30;;;10.80;99.90;;;;;;4918203;29;20562;-71
2022/04/30 08:41:42;;;;;;;4.20;2.33;;;10.80;99.90;;;;;;4902741;29;20079;-71
2022/04/30 08:44:12;;;;;;;3.58;2.33;;;10.90;99.90;;;;;;4918201;29;20047;-71
2022/04/30 08:46:39;;;;;;;5.00;2.47;;;10.90;99.90;;;;;;4901881;29;20650;-71
2022/04/30 08:49:06;;;;;;;4.03;2.97;;;11.00;99.90;;;;;;4917643;29;20071;-71
2022/04/30 08:51:32;;;;;;;3.90;2.60;;;11.10;99.90;;;;;;4917796;29;20510;-73
2022/04/30 08:53:58;;;;;;;2.53;1.83;;;11.20;99.90;;;;;;4935184;29;20119;-71
2022/04/30 08:56:24;;;;;;;4.93;2.83;;;11.40;99.90;;;;;;4917696;29;20051;-71
2022/04/30 08:59:04;;;;;;;;;;;11.40;99.90;;;;;;4902703;29;20087;-71
2022/04/30 09:01:43;;;;;;;3.60;2.85;;;11.50;99.90;;;;;;4896173;29;20383;-71
2022/04/30 09:04:08;;;;;;;2.63;2.05;;;11.60;99.90;;;;;;4917501;29;20052;-72
2022/04/30 09:06:43;;;;;;;3.22;2.47;;;11.70;99.90;;;;;;4917401;29;20130;-72
2022/04/30 09:09:09;;;;;;;4.25;2.50;;;11.80;99.90;;;;;;4917396;29;20465;-72
2022/04/30 09:11:38;;;;;;;2.33;1.70;;;11.90;99.90;;;;;;4917553;29;20130;-73
2022/04/30 09:14:03;;;;;;;4.70;2.50;;;12.10;99.90;;;;;;4917120;29;20040;-72
2022/04/30 09:16:29;;;;;;;4.13;2.80;;;12.10;99.90;;;;;;4917294;29;20103;-72
2022/04/30 09:19:02;;;;;;;3.50;2.20;;;12.00;99.90;;;;;;4917293;29;20082;-72
2022/04/30 09:21:28;;;;;;;3.25;1.95;;;12.20;99.90;;;;;;4917112;29;20051;-72
2022/04/30 09:24:03;;;;;;;1.90;1.70;;;12.30;99.90;;;;;;4901556;29;20060;-72
2022/04/30 09:26:42;;;;;;;4.63;3.08;;;12.40;99.90;;;;;;4917074;29;20079;-72
2022/04/30 09:29:22;;;;;;;5.63;3.00;;;12.40;99.90;;;;;;4902247;29;20516;-74
2022/04/30 09:31:50;;;;;;;3.53;2.70;;;12.30;99.90;;;;;;4917382;29;20387;-73
2022/04/30 09:39:46;;;;;;;5.28;2.97;;;12.10;99.90;;;;;;4917089;29;20058;-73
2022/04/30 09:42:12;;;;;;;4.05;2.85;;;12.00;99.90;;;;;;4916989;29;20048;-73
2022/04/30 09:44:38;;;;;;;3.35;2.33;;;11.90;99.90;;;;;;4917244;29;20055;-73
2022/04/30 09:47:08;;;;;;;3.75;2.42;;;11.80;99.90;;;;;;4916779;29;20102;-72
2022/04/30 09:55:07;;;;;;;5.25;3.15;;;11.30;99.90;;;;;;4917050;29;20189;-73
2022/04/30 09:57:35;;;;;;;4.28;2.78;;;11.20;99.90;;;;;;4901359;29;20059;-73
2022/04/30 10:00:03;;;;;;;4.93;3.13;;;11.10;99.90;;;;;;4916892;29;20147;-73
2022/04/30 10:02:31;;;;;;;5.32;3.03;;;10.90;99.90;;;;;;4917329;29;20070;-73
2022/04/30 10:04:57;;;;;;;4.38;2.47;;;10.90;99.90;;;;;;4917138;29;20123;-73
2022/04/30 10:07:27;;;;;;;3.22;1.92;;;10.90;99.90;;;;;;4901166;29;20430;-73
2022/04/30 10:10:02;;;;;;;2.88;1.90;;;10.90;99.90;;;;;;4901255;29;20086;-73
2022/04/30 10:12:42;;;;;;;5.50;3.40;;;10.90;99.90;;;;;;4917172;29;20050;-73
2022/04/30 10:15:51;;;;;;;5.97;3.63;;;10.90;99.90;;;;;;4917421;29;20055;-73
2022/04/30 10:18:18;;;;;;;3.78;3.17;;;10.90;99.90;;;;;;4916638;29;20050;-73
2022/04/30 10:20:51;;;;;;;5.20;2.63;;;10.80;99.90;;;;;;4915625;29;20469;-73
2022/04/30 10:23:18;;;;;;;4.63;3.20;;;10.80;99.90;;;;;;4916259;29;20066;-73
2022/04/30 10:25:47;;;;;;;;;;;10.90;99.90;;;;;;4917227;29;20039;-73
2022/04/30 10:28:23;;;;;;;4.63;3.42;;;10.90;99.90;;;;;;4916874;29;20339;-73
2022/04/30 10:31:00;;;;;;;4.28;2.95;;;10.90;99.90;;;;;;4916038;29;20503;-72
2022/04/30 10:33:26;;;;;;;3.53;2.33;;;10.90;99.90;;;;;;4916203;29;20056;-73
2022/04/30 10:36:03;;;;;;;;;;;11.00;99.90;;;;;;4917041;29;20110;-73
2022/04/30 10:38:28;;;;;;;3.85;2.63;;;11.10;99.90;;;;;;4916370;29;19967;-73
2022/04/30 10:40:59;;;;;;;4.80;2.55;;;11.10;99.90;;;;;;4916452;29;20043;-73
2022/04/30 10:43:36;;;;;;;5.88;3.03;;;11.20;99.90;;;;;;4900515;29;20043;-73
2022/04/30 10:46:04;;;;;;;3.70;3.10;;;11.30;99.90;;;;;;4915926;29;20103;-73
2022/04/30 10:48:32;;;;;;;3.17;2.20;;;11.20;99.90;;;;;;4901014;29;20043;-73
2022/04/30 10:51:05;;;;;;;3.38;2.60;;;11.20;99.90;;;;;;4916325;29;20047;-73
2022/04/30 10:53:32;;;;;;;2.97;2.30;;;11.10;99.90;;;;;;4916067;29;20052;-73
2022/04/30 10:56:03;;;;;;;2.83;2.10;;;11.20;99.90;;;;;;4916105;29;20075;-73
2022/04/30 10:58:30;;;;;;;4.70;2.67;;;11.10;99.90;;;;;;4900704;29;20427;-74
2022/04/30 11:00:56;;;;;;;3.22;2.30;;;11.00;99.90;;;;;;4916204;29;20130;-73
2022/04/30 11:03:30;;;;;;;4.30;2.63;;;11.00;99.90;;;;;;4916453;29;20083;-73
2022/04/30 11:05:56;;;;;;;4.30;2.42;;;10.90;99.90;;;;;;4915832;29;20047;-73
2022/04/30 11:08:22;;;;;;;4.45;3.08;;;10.80;99.90;;;;;;4908534;29;20058;-73
2022/04/30 11:10:53;;;;;;;5.10;2.95;;;10.80;99.90;;;;;;4916178;29;20063;-73
2022/04/30 11:13:19;;;;;;;6.50;3.28;;;10.60;99.90;;;;;;4916836;29;20054;-73
2022/04/30 11:15:46;;;;;;;7.10;3.50;;;10.60;99.90;;;;;;4916450;29;20576;-74
2022/04/30 11:18:12;;;;;;;5.50;3.70;;;10.50;99.90;;;;;;4916330;29;20051;-73
2022/04/30 11:20:37;;;;;;;4.20;3.28;;;10.50;99.90;;;;;;4916108;29;20048;-74
2022/04/30 11:23:03;;;;;;;5.25;3.60;;;10.50;99.90;;;;;;4916200;29;20857;-72
2022/04/30 11:25:37;;;;;;;4.70;2.83;;;10.50;99.90;;;;;;4915825;29;20130;-74
2022/04/30 11:28:08;;;;;;;5.60;3.42;;;10.50;99.90;;;;;;4915966;29;20047;-72
2022/04/30 11:30:44;;;;;;;5.03;3.45;;;10.60;99.90;;;;;;4916026;29;20095;-72
2022/04/30 11:33:10;;;;;;;5.68;3.80;;;10.60;99.90;;;;;;4919117;29;20128;-72
2022/04/30 11:35:36;;;;;;;;;;;10.70;99.90;;;;;;4919589;29;20042;-72
2022/04/30 11:38:03;;;;;;;6.07;3.90;;;10.70;99.90;;;;;;4919400;29;19926;-72
2022/04/30 11:40:29;;;;;;;4.47;3.33;;;10.80;99.90;;;;;;4919431;29;20043;-72
2022/04/30 11:42:59;;;;;;;4.45;2.90;;;10.90;99.90;;;;;;4919608;29;20102;-72
2022/04/30 11:45:32;;;;;;;4.30;3.22;;;11.00;99.90;;;;;;4919291;29;20055;-73
2022/04/30 11:48:05;;;;;;;3.92;2.47;;;10.90;99.90;;;;;;4919537;29;20048;-72
2022/04/30 11:50:31;;;;;;;4.82;2.80;;;11.20;99.90;;;;;;4919486;29;20055;-72
2022/04/30 11:52:57;;;;;;;4.30;2.30;;;11.20;99.90;;;;;;4903708;29;20106;-72
2022/04/30 11:55:23;;;;;;;4.53;2.67;;;11.50;99.90;;;;;;4919276;29;20055;-72
2022/04/30 11:57:49;;;;;;;;;;;11.50;99.90;;;;;;4888623;29;20075;-73
2022/04/30 12:00:18;;;;;;;4.05;1.83;;;11.50;99.90;;;;;;4919227;29;20366;-72
2022/04/30 12:02:48;;;;;;;3.45;2.03;;;11.60;99.90;;;;;;4903285;29;20059;-73
2022/04/30 12:05:14;;;;;;;3.08;2.20;;;11.80;99.90;;;;;;4903369;29;20109;-72
2022/04/30 12:07:45;;;;;;;3.05;2.00;;;11.90;99.90;;;;;;4918784;29;20051;-73
2022/04/30 12:10:14;;;;;;;4.93;2.67;;;12.00;99.90;;;;;;4918830;29;20046;-73
2022/04/30 12:12:40;;;;;;;2.67;2.15;;;11.90;99.90;;;;;;4903404;29;20047;-73
2022/04/30 12:15:18;;;;;;;3.95;2.08;;;11.90;99.90;;;;;;4918619;29;20044;-72
2022/04/30 12:17:44;;;;;;;2.80;2.00;;;12.00;99.90;;;;;;4918569;29;20044;-72
2022/04/30 12:25:46;;;;;;;2.97;2.20;;;12.20;99.90;;;;;;4918592;29;20146;-73
2022/04/30 12:28:12;;;;;;;3.53;2.17;;;12.30;99.90;;;;;;4918952;29;20470;-72
2022/04/30 12:30:49;;;;;;;2.30;1.70;;;12.20;99.90;;;;;;4918902;29;20114;-73
2022/04/30 12:33:15;;;;;;;2.25;1.80;;;12.30;99.90;;;;;;4918875;29;20044;-73
2022/04/30 12:35:41;;;;;;;3.58;2.25;;;12.30;99.90;;;;;;4918523;29;20067;-73
2022/04/30 12:38:14;;;;;;;4.80;2.72;;;12.20;99.90;;;;;;4918638;29;20062;-73
2022/04/30 12:40:42;;;;;;;4.50;2.50;;;12.10;99.90;;;;;;4902878;29;20407;-72
2022/04/30 12:43:08;;;;;;;5.40;2.85;;;11.90;99.90;;;;;;4917653;29;20166;-73
2022/04/30 12:45:34;;;;;;;4.00;2.65;;;11.70;99.90;;;;;;4918534;29;20111;-73
2022/04/30 12:48:01;;;;;;;3.50;2.58;;;11.70;99.90;;;;;;4918474;29;20040;-73
2022/04/30 12:50:28;;;;;;;4.65;3.08;;;11.50;99.90;;;;;;4918413;29;20055;-73
2022/04/30 12:52:53;;;;;;;6.32;2.78;;;11.30;99.90;;;;;;4918290;29;20079;-73
2022/04/30 12:55:20;;;;;;;5.03;2.88;;;11.30;99.90;;;;;;4918295;29;20074;-73
2022/04/30 12:57:49;;;;;;;3.40;2.60;;;11.20;99.90;;;;;;4918472;29;20079;-73
2022/04/30 13:00:16;;;;;;;3.78;2.63;;;11.20;99.90;;;;;;4918268;29;20043;-73
2022/04/30 13:02:43;;;;;;;4.22;2.80;;;11.20;99.90;;;;;;4902177;29;20122;-73
2022/04/30 13:05:10;;;;;;;5.43;2.97;;;11.10;99.90;;;;;;4902644;29;20043;-73
2022/04/30 13:07:40;;;;;;;4.88;3.00;;;11.00;99.90;;;;;;4918082;29;20047;-73
2022/04/30 13:15:41;;;;;;;3.85;3.17;;;11.00;99.90;;;;;;4917416;29;20479;-73
2022/04/30 13:18:07;;;;;;;4.80;3.10;;;10.90;99.90;;;;;;4917978;29;20126;-73
2022/04/30 13:20:34;;;;;;;;;;;10.80;99.90;;;;;;4918159;29;20063;-72
2022/04/30 13:22:59;;;;;;;4.72;3.63;;;10.80;99.90;;;;;;4902208;29;19929;-72
2022/04/30 13:25:29;;;;;;;5.65;4.20;;;10.80;99.90;;;;;;4918037;29;20158;-73
2022/04/30 13:27:56;;;;;;;5.70;3.83;;;10.80;99.90;;;;;;4919575;29;20144;-73
2022/04/30 13:30:26;;;;;;;3.50;2.90;;;10.90;99.90;;;;;;4919710;29;20047;-74
2022/04/30 13:32:51;;;;;;;4.10;2.50;;;10.90;99.90;;;;;;4921100;29;20487;-74
2022/04/30 13:35:18;;;;;;;2.40;2.00;;;10.80;99.90;;;;;;4920651;29;20158;-73
2022/04/30 13:37:45;;;;;;;2.60;1.90;;;10.90;99.90;;;;;;4921621;29;20044;-72
2022/04/30 13:40:13;;;;;;;1.73;1.60;;;10.90;99.90;;;;;;4935997;29;20063;-73
2022/04/30 13:42:40;;;;;;;3.30;2.10;;;10.90;99.90;;;;;;4926952;29;20075;-74
2022/04/30 13:45:07;;;;;;;3.33;1.88;;;10.90;99.90;;;;;;4907200;29;20448;-73
2022/04/30 13:47:33;;;;;;;3.60;2.20;;;10.80;99.90;;;;;;4920283;29;20043;-73
2022/04/30 13:49:59;;;;;;;3.25;2.03;;;10.80;99.90;;;;;;4917681;29;20070;-74